sensor_id;sensor_type;location;lat;lon;timestamp;pressure;altitude;pressure_sealevel;temperature;humidity
59435;BME280;45241;49.768;8.636;2023-04-24T00:00:18;99030.88;;;14.20;82.31
59435;BME280;45241;49.768;8.636;2023-04-24T00:02:44;99035.72;;;14.18;83.02
59435;BME280;45241;49.768;8.636;2023-04-24T00:05:16;99041.34;;;14.17;83.12
59435;BME280;45241;49.768;8.636;2023-04-24T00:07:42;99033.31;;;14.05;83.75
59435;BME280;45241;49.768;8.636;2023-04-24T00:10:08;99024.75;;;14.08;83.34
59435;BME280;45241;49.768;8.636;2023-04-24T00:12:34;99021.00;;;14.09;83.96
59435;BME280;45241;49.768;8.636;2023-04-24T00:15:00;99016.09;;;14.06;83.66
59435;BME280;45241;49.768;8.636;2023-04-24T00:17:25;99009.81;;;14.00;83.47
59435;BME280;45241;49.768;8.636;2023-04-24T00:19:51;99016.28;;;13.99;84.01
59435;BME280;45241;49.768;8.636;2023-04-24T00:22:17;99005.56;;;13.88;84.62
59435;BME280;45241;49.768;8.636;2023-04-24T00:24:43;99005.19;;;14.13;83.03
59435;BME280;45241;49.768;8.636;2023-04-24T00:27:08;99007.44;;;13.87;84.72
59435;BME280;45241;49.768;8.636;2023-04-24T00:29:34;98996.16;;;13.90;84.10
59435;BME280;45241;49.768;8.636;2023-04-24T00:31:59;98998.59;;;13.92;84.41
59435;BME280;45241;49.768;8.636;2023-04-24T00:34:24;99002.34;;;13.74;86.66
59435;BME280;45241;49.768;8.636;2023-04-24T00:36:50;99010.34;;;13.86;86.63
59435;BME280;45241;49.768;8.636;2023-04-24T00:39:21;99003.38;;;13.73;87.54
59435;BME280;45241;49.768;8.636;2023-04-24T00:41:46;99002.25;;;13.86;87.96
59435;BME280;45241;49.768;8.636;2023-04-24T00:44:13;98996.66;;;13.87;88.05
59435;BME280;45241;49.768;8.636;2023-04-24T00:46:39;98993.16;;;13.87;88.39
59435;BME280;45241;49.768;8.636;2023-04-24T00:49:05;98996.72;;;13.75;88.29
59435;BME280;45241;49.768;8.636;2023-04-24T00:51:31;98987.50;;;13.60;88.75
59435;BME280;45241;49.768;8.636;2023-04-24T00:53:58;98989.91;;;13.73;87.54
59435;BME280;45241;49.768;8.636;2023-04-24T00:56:23;98989.34;;;13.71;87.73
59435;BME280;45241;49.768;8.636;2023-04-24T00:58:49;98993.25;;;13.63;87.91
59435;BME280;45241;49.768;8.636;2023-04-24T01:01:14;98983.50;;;13.91;86.25
59435;BME280;45241;49.768;8.636;2023-04-24T01:03:40;98989.19;;;13.61;87.53
59435;BME280;45241;49.768;8.636;2023-04-24T01:06:06;98999.78;;;13.67;86.99
59435;BME280;45241;49.768;8.636;2023-04-24T01:08:32;98983.41;;;13.86;86.82
59435;BME280;45241;49.768;8.636;2023-04-24T01:11:00;98985.38;;;13.73;87.31
59435;BME280;45241;49.768;8.636;2023-04-24T01:13:27;98987.19;;;13.56;88.75
59435;BME280;45241;49.768;8.636;2023-04-24T01:15:53;98978.28;;;13.56;87.61
59435;BME280;45241;49.768;8.636;2023-04-24T01:18:18;98980.41;;;13.54;87.83
59435;BME280;45241;49.768;8.636;2023-04-24T01:20:44;98983.19;;;13.59;87.07
59435;BME280;45241;49.768;8.636;2023-04-24T01:23:10;98996.28;;;13.67;86.02
59435;BME280;45241;49.768;8.636;2023-04-24T01:25:36;98995.28;;;13.73;85.58
59435;BME280;45241;49.768;8.636;2023-04-24T01:28:03;98980.69;;;13.69;84.72
59435;BME280;45241;49.768;8.636;2023-04-24T01:30:30;98986.00;;;13.64;84.95
59435;BME280;45241;49.768;8.636;2023-04-24T01:32:56;98980.50;;;13.87;83.46
59435;BME280;45241;49.768;8.636;2023-04-24T01:35:21;98991.06;;;13.77;83.83
59435;BME280;45241;49.768;8.636;2023-04-24T01:37:47;99001.22;;;13.87;83.54
59435;BME280;45241;49.768;8.636;2023-04-24T01:40:12;98988.34;;;14.05;81.76
59435;BME280;45241;49.768;8.636;2023-04-24T01:42:38;98993.03;;;13.82;82.97
59435;BME280;45241;49.768;8.636;2023-04-24T01:45:04;98996.88;;;13.86;83.75
59435;BME280;45241;49.768;8.636;2023-04-24T01:47:31;98995.59;;;13.88;84.35
59435;BME280;45241;49.768;8.636;2023-04-24T01:49:57;98991.47;;;13.86;85.34
59435;BME280;45241;49.768;8.636;2023-04-24T01:52:22;98986.66;;;13.71;87.01
59435;BME280;45241;49.768;8.636;2023-04-24T01:54:47;98990.44;;;13.58;88.01
59435;BME280;45241;49.768;8.636;2023-04-24T01:57:14;98977.50;;;13.72;86.62
59435;BME280;45241;49.768;8.636;2023-04-24T01:59:39;98977.28;;;13.73;85.05
59435;BME280;45241;49.768;8.636;2023-04-24T02:02:05;98980.97;;;13.84;85.65
59435;BME280;45241;49.768;8.636;2023-04-24T02:04:31;98987.00;;;13.74;86.37
59435;BME280;45241;49.768;8.636;2023-04-24T02:06:56;98973.66;;;13.68;86.34
59435;BME280;45241;49.768;8.636;2023-04-24T02:09:22;98974.81;;;13.72;85.86
59435;BME280;45241;49.768;8.636;2023-04-24T02:11:47;98986.66;;;13.71;86.08
59435;BME280;45241;49.768;8.636;2023-04-24T02:14:12;98978.50;;;13.83;85.07
59435;BME280;45241;49.768;8.636;2023-04-24T02:16:38;98971.66;;;13.75;85.96
59435;BME280;45241;49.768;8.636;2023-04-24T02:19:03;98975.78;;;13.66;86.43
59435;BME280;45241;49.768;8.636;2023-04-24T02:21:29;98975.22;;;13.64;87.06
59435;BME280;45241;49.768;8.636;2023-04-24T02:23:55;98983.63;;;13.67;87.43
59435;BME280;45241;49.768;8.636;2023-04-24T02:26:21;98987.38;;;13.66;87.86
59435;BME280;45241;49.768;8.636;2023-04-24T02:28:46;98998.81;;;13.45;90.17
59435;BME280;45241;49.768;8.636;2023-04-24T02:31:11;99006.94;;;13.33;92.33
59435;BME280;45241;49.768;8.636;2023-04-24T02:33:37;99001.22;;;13.30;95.53
59435;BME280;45241;49.768;8.636;2023-04-24T02:36:02;99002.41;;;13.22;97.93
59435;BME280;45241;49.768;8.636;2023-04-24T02:38:28;99003.25;;;13.11;98.33
59435;BME280;45241;49.768;8.636;2023-04-24T02:40:54;98999.91;;;13.32;96.98
59435;BME280;45241;49.768;8.636;2023-04-24T02:43:19;99011.59;;;12.98;99.05
59435;BME280;45241;49.768;8.636;2023-04-24T02:45:45;99014.03;;;12.87;100.00
59435;BME280;45241;49.768;8.636;2023-04-24T02:48:10;99013.34;;;12.92;100.00
59435;BME280;45241;49.768;8.636;2023-04-24T02:50:35;99014.63;;;13.01;100.00
59435;BME280;45241;49.768;8.636;2023-04-24T02:53:01;99024.44;;;12.84;100.00
59435;BME280;45241;49.768;8.636;2023-04-24T02:55:26;99020.84;;;12.90;100.00
59435;BME280;45241;49.768;8.636;2023-04-24T02:57:51;99026.66;;;12.75;100.00
59435;BME280;45241;49.768;8.636;2023-04-24T03:00:17;99033.44;;;12.54;100.00
59435;BME280;45241;49.768;8.636;2023-04-24T03:02:42;99027.25;;;12.89;100.00
59435;BME280;45241;49.768;8.636;2023-04-24T03:05:08;99032.50;;;12.72;100.00
59435;BME280;45241;49.768;8.636;2023-04-24T03:07:34;99032.38;;;12.67;100.00
59435;BME280;45241;49.768;8.636;2023-04-24T03:09:59;99047.00;;;12.59;100.00
59435;BME280;45241;49.768;8.636;2023-04-24T03:12:25;99052.84;;;12.56;100.00
59435;BME280;45241;49.768;8.636;2023-04-24T03:14:50;99045.47;;;12.75;100.00
59435;BME280;45241;49.768;8.636;2023-04-24T03:17:15;99052.97;;;12.61;100.00
59435;BME280;45241;49.768;8.636;2023-04-24T03:19:41;99045.94;;;12.60;100.00
59435;BME280;45241;49.768;8.636;2023-04-24T03:22:06;99035.06;;;12.67;100.00
59435;BME280;45241;49.768;8.636;2023-04-24T03:24:31;99040.59;;;12.72;100.00
59435;BME280;45241;49.768;8.636;2023-04-24T03:26:57;99040.44;;;12.67;100.00
59435;BME280;45241;49.768;8.636;2023-04-24T03:29:22;99043.59;;;12.52;100.00
59435;BME280;45241;49.768;8.636;2023-04-24T03:31:48;99046.41;;;12.46;100.00
59435;BME280;45241;49.768;8.636;2023-04-24T03:34:13;99054.91;;;12.19;100.00
59435;BME280;45241;49.768;8.636;2023-04-24T03:36:39;99061.97;;;12.44;100.00
59435;BME280;45241;49.768;8.636;2023-04-24T03:39:04;99063.00;;;12.31;100.00
59435;BME280;45241;49.768;8.636;2023-04-24T03:41:30;99048.63;;;12.60;100.00
59435;BME280;45241;49.768;8.636;2023-04-24T03:43:55;99051.84;;;12.27;100.00
59435;BME280;45241;49.768;8.636;2023-04-24T03:46:21;99055.84;;;12.37;100.00
59435;BME280;45241;49.768;8.636;2023-04-24T03:48:46;99056.88;;;12.24;100.00
59435;BME280;45241;49.768;8.636;2023-04-24T03:51:11;99064.22;;;12.05;100.00
59435;BME280;45241;49.768;8.636;2023-04-24T03:53:37;99067.63;;;12.24;100.00
59435;BME280;45241;49.768;8.636;2023-04-24T03:56:02;99069.38;;;12.18;100.00
59435;BME280;45241;49.768;8.636;2023-04-24T03:58:28;99077.75;;;12.10;100.00
59435;BME280;45241;49.768;8.636;2023-04-24T04:00:53;99082.19;;;12.16;100.00
59435;BME280;45241;49.768;8.636;2023-04-24T04:03:18;99080.81;;;12.14;100.00
59435;BME280;45241;49.768;8.636;2023-04-24T04:05:44;99095.97;;;12.08;100.00
59435;BME280;45241;49.768;8.636;2023-04-24T04:08:10;99094.38;;;12.19;100.00
59435;BME280;45241;49.768;8.636;2023-04-24T04:10:35;99098.69;;;11.90;100.00
59435;BME280;45241;49.768;8.636;2023-04-24T04:13:01;99093.22;;;12.26;100.00
59435;BME280;45241;49.768;8.636;2023-04-24T04:15:26;99099.09;;;11.93;100.00
59435;BME280;45241;49.768;8.636;2023-04-24T04:17:51;99102.53;;;11.82;100.00
59435;BME280;45241;49.768;8.636;2023-04-24T04:20:17;99093.31;;;11.90;100.00
59435;BME280;45241;49.768;8.636;2023-04-24T04:22:42;99099.63;;;11.84;100.00
59435;BME280;45241;49.768;8.636;2023-04-24T04:25:07;99113.03;;;11.84;100.00
59435;BME280;45241;49.768;8.636;2023-04-24T04:27:33;99119.34;;;11.89;100.00
59435;BME280;45241;49.768;8.636;2023-04-24T04:30:00;99127.09;;;11.67;100.00
59435;BME280;45241;49.768;8.636;2023-04-24T04:32:33;99123.50;;;11.73;100.00
59435;BME280;45241;49.768;8.636;2023-04-24T04:35:00;99130.06;;;11.59;100.00
59435;BME280;45241;49.768;8.636;2023-04-24T04:37:31;99123.06;;;11.58;100.00
59435;BME280;45241;49.768;8.636;2023-04-24T04:39:58;99126.53;;;11.77;100.00
59435;BME280;45241;49.768;8.636;2023-04-24T04:42:25;99123.53;;;11.55;100.00
59435;BME280;45241;49.768;8.636;2023-04-24T04:44:50;99128.50;;;11.70;100.00
59435;BME280;45241;49.768;8.636;2023-04-24T04:47:16;99115.97;;;11.64;100.00
59435;BME280;45241;49.768;8.636;2023-04-24T04:49:42;99120.53;;;11.45;99.62
59435;BME280;45241;49.768;8.636;2023-04-24T04:52:08;99132.47;;;11.67;98.04
59435;BME280;45241;49.768;8.636;2023-04-24T04:54:33;99130.72;;;11.73;97.41
59435;BME280;45241;49.768;8.636;2023-04-24T04:56:59;99135.63;;;11.76;97.56
59435;BME280;45241;49.768;8.636;2023-04-24T04:59:25;99131.91;;;11.77;97.28
59435;BME280;45241;49.768;8.636;2023-04-24T05:01:51;99139.84;;;11.72;97.99
59435;BME280;45241;49.768;8.636;2023-04-24T05:04:16;99150.81;;;11.52;98.40
59435;BME280;45241;49.768;8.636;2023-04-24T05:06:41;99151.25;;;11.67;99.39
59435;BME280;45241;49.768;8.636;2023-04-24T05:09:06;99155.41;;;11.82;97.82
59435;BME280;45241;49.768;8.636;2023-04-24T05:11:32;99156.31;;;11.76;98.18
59435;BME280;45241;49.768;8.636;2023-04-24T05:13:57;99160.94;;;11.68;97.58
59435;BME280;45241;49.768;8.636;2023-04-24T05:16:23;99176.09;;;11.81;97.33
59435;BME280;45241;49.768;8.636;2023-04-24T05:18:48;99180.31;;;11.70;97.32
59435;BME280;45241;49.768;8.636;2023-04-24T05:21:13;99189.50;;;11.63;97.83
59435;BME280;45241;49.768;8.636;2023-04-24T05:23:39;99179.72;;;11.87;98.14
59435;BME280;45241;49.768;8.636;2023-04-24T05:26:04;99192.84;;;11.77;97.46
59435;BME280;45241;49.768;8.636;2023-04-24T05:28:30;99199.94;;;11.71;97.08
59435;BME280;45241;49.768;8.636;2023-04-24T05:30:55;99196.19;;;11.90;96.66
59435;BME280;45241;49.768;8.636;2023-04-24T05:33:21;99197.47;;;11.88;93.98
59435;BME280;45241;49.768;8.636;2023-04-24T05:35:47;99197.78;;;11.80;92.33
59435;BME280;45241;49.768;8.636;2023-04-24T05:38:13;99197.41;;;11.94;92.96
59435;BME280;45241;49.768;8.636;2023-04-24T05:40:38;99207.91;;;11.96;92.80
59435;BME280;45241;49.768;8.636;2023-04-24T05:43:04;99204.09;;;12.03;91.65
59435;BME280;45241;49.768;8.636;2023-04-24T05:45:29;99213.16;;;11.91;91.47
59435;BME280;45241;49.768;8.636;2023-04-24T05:47:55;99217.53;;;11.85;92.18
59435;BME280;45241;49.768;8.636;2023-04-24T05:50:20;99216.09;;;12.19;90.10
59435;BME280;45241;49.768;8.636;2023-04-24T05:52:46;99217.16;;;12.00;90.83
59435;BME280;45241;49.768;8.636;2023-04-24T05:55:11;99228.22;;;11.92;89.92
59435;BME280;45241;49.768;8.636;2023-04-24T05:57:36;99219.03;;;11.81;90.91
59435;BME280;45241;49.768;8.636;2023-04-24T06:00:03;99218.47;;;12.27;90.02
59435;BME280;45241;49.768;8.636;2023-04-24T06:02:29;99225.13;;;12.25;91.26
59435;BME280;45241;49.768;8.636;2023-04-24T06:04:57;99219.38;;;12.51;90.17
59435;BME280;45241;49.768;8.636;2023-04-24T06:07:24;99223.25;;;12.25;87.09
59435;BME280;45241;49.768;8.636;2023-04-24T06:09:51;99224.72;;;11.91;84.98
59435;BME280;45241;49.768;8.636;2023-04-24T06:12:16;99228.50;;;12.20;84.55
59435;BME280;45241;49.768;8.636;2023-04-24T06:14:41;99234.09;;;11.82;83.22
59435;BME280;45241;49.768;8.636;2023-04-24T06:17:07;99234.09;;;11.82;83.22
59435;BME280;45241;49.768;8.636;2023-04-24T06:19:32;99247.75;;;11.99;83.70
59435;BME280;45241;49.768;8.636;2023-04-24T06:21:57;99239.25;;;11.65;84.31
59435;BME280;45241;49.768;8.636;2023-04-24T06:24:27;99246.19;;;11.91;83.33
59435;BME280;45241;49.768;8.636;2023-04-24T06:26:52;99244.84;;;12.00;83.21
59435;BME280;45241;49.768;8.636;2023-04-24T06:29:17;99247.75;;;11.81;83.45
59435;BME280;45241;49.768;8.636;2023-04-24T06:31:43;99252.38;;;11.92;83.92
59435;BME280;45241;49.768;8.636;2023-04-24T06:34:08;99261.84;;;11.76;83.86
59435;BME280;45241;49.768;8.636;2023-04-24T06:36:33;99257.50;;;11.75;83.58
59435;BME280;45241;49.768;8.636;2023-04-24T06:39:00;99253.88;;;12.06;83.96
59435;BME280;45241;49.768;8.636;2023-04-24T06:41:26;99261.63;;;11.96;83.75
59435;BME280;45241;49.768;8.636;2023-04-24T06:43:51;99252.00;;;12.07;83.92
59435;BME280;45241;49.768;8.636;2023-04-24T06:46:16;99258.69;;;12.16;83.12
59435;BME280;45241;49.768;8.636;2023-04-24T06:48:42;99262.69;;;11.95;82.30
59435;BME280;45241;49.768;8.636;2023-04-24T06:51:07;99265.88;;;12.03;82.32
59435;BME280;45241;49.768;8.636;2023-04-24T06:53:33;99260.72;;;12.20;82.91
59435;BME280;45241;49.768;8.636;2023-04-24T06:55:58;99266.63;;;12.11;82.77
59435;BME280;45241;49.768;8.636;2023-04-24T06:58:24;99262.66;;;12.31;82.43
59435;BME280;45241;49.768;8.636;2023-04-24T07:00:50;99274.75;;;12.22;83.10
59435;BME280;45241;49.768;8.636;2023-04-24T07:03:15;99273.19;;;12.15;82.44
59435;BME280;45241;49.768;8.636;2023-04-24T07:05:41;99266.09;;;12.02;81.72
59435;BME280;45241;49.768;8.636;2023-04-24T07:08:06;99255.00;;;12.17;82.16
59435;BME280;45241;49.768;8.636;2023-04-24T07:10:32;99258.47;;;12.66;82.44
59435;BME280;45241;49.768;8.636;2023-04-24T07:13:00;99254.72;;;12.67;82.23
59435;BME280;45241;49.768;8.636;2023-04-24T07:15:26;99253.28;;;12.52;81.27
59435;BME280;45241;49.768;8.636;2023-04-24T07:17:51;99256.47;;;12.31;81.32
59435;BME280;45241;49.768;8.636;2023-04-24T07:20:17;99246.06;;;12.65;83.37
59435;BME280;45241;49.768;8.636;2023-04-24T07:22:43;99240.38;;;12.73;80.11
59435;BME280;45241;49.768;8.636;2023-04-24T07:25:08;99241.47;;;12.83;81.76
59435;BME280;45241;49.768;8.636;2023-04-24T07:27:34;99250.13;;;12.85;81.26
59435;BME280;45241;49.768;8.636;2023-04-24T07:30:02;99250.91;;;12.74;80.77
59435;BME280;45241;49.768;8.636;2023-04-24T07:32:29;99250.06;;;13.04;80.99
59435;BME280;45241;49.768;8.636;2023-04-24T07:34:54;99250.72;;;12.87;80.21
59435;BME280;45241;49.768;8.636;2023-04-24T07:37:20;99255.94;;;12.71;81.73
59435;BME280;45241;49.768;8.636;2023-04-24T07:39:45;99258.81;;;12.39;78.64
59435;BME280;45241;49.768;8.636;2023-04-24T07:42:11;99246.78;;;12.60;76.73
59435;BME280;45241;49.768;8.636;2023-04-24T07:44:36;99249.22;;;12.91;77.63
59435;BME280;45241;49.768;8.636;2023-04-24T07:47:01;99252.84;;;12.67;78.76
59435;BME280;45241;49.768;8.636;2023-04-24T07:49:27;99253.72;;;12.79;78.77
59435;BME280;45241;49.768;8.636;2023-04-24T07:51:53;99254.19;;;13.18;76.86
59435;BME280;45241;49.768;8.636;2023-04-24T07:54:18;99262.16;;;13.13;78.25
59435;BME280;45241;49.768;8.636;2023-04-24T07:56:44;99266.56;;;12.96;78.91
59435;BME280;45241;49.768;8.636;2023-04-24T07:59:10;99269.50;;;12.76;77.87
59435;BME280;45241;49.768;8.636;2023-04-24T08:01:36;99271.09;;;12.65;79.90
59435;BME280;45241;49.768;8.636;2023-04-24T08:04:01;99278.97;;;12.78;79.20
59435;BME280;45241;49.768;8.636;2023-04-24T08:06:27;99285.28;;;12.72;76.21
59435;BME280;45241;49.768;8.636;2023-04-24T08:08:57;99284.34;;;12.78;74.17
59435;BME280;45241;49.768;8.636;2023-04-24T08:11:23;99283.72;;;12.95;73.28
59435;BME280;45241;49.768;8.636;2023-04-24T08:13:49;99277.22;;;12.72;68.86
59435;BME280;45241;49.768;8.636;2023-04-24T08:16:14;99280.59;;;12.79;68.65
59435;BME280;45241;49.768;8.636;2023-04-24T08:18:39;99293.81;;;12.69;66.92
59435;BME280;45241;49.768;8.636;2023-04-24T08:21:05;99285.25;;;12.90;67.43
59435;BME280;45241;49.768;8.636;2023-04-24T08:23:30;99282.72;;;13.07;67.83
59435;BME280;45241;49.768;8.636;2023-04-24T08:25:55;99308.56;;;12.97;67.28
59435;BME280;45241;49.768;8.636;2023-04-24T08:28:21;99314.84;;;12.90;67.51
59435;BME280;45241;49.768;8.636;2023-04-24T08:30:47;99311.25;;;12.97;67.93
59435;BME280;45241;49.768;8.636;2023-04-24T08:33:13;99312.19;;;13.02;67.56
59435;BME280;45241;49.768;8.636;2023-04-24T08:35:39;99314.53;;;12.99;66.59
59435;BME280;45241;49.768;8.636;2023-04-24T08:38:04;99314.28;;;13.00;65.83
59435;BME280;45241;49.768;8.636;2023-04-24T08:40:34;99342.53;;;13.09;66.25
59435;BME280;45241;49.768;8.636;2023-04-24T08:43:00;99328.91;;;13.04;65.99
59435;BME280;45241;49.768;8.636;2023-04-24T08:45:26;99326.38;;;13.09;63.81
59435;BME280;45241;49.768;8.636;2023-04-24T08:47:52;99321.31;;;13.78;64.52
59435;BME280;45241;49.768;8.636;2023-04-24T08:50:19;99325.97;;;14.41;63.93
59435;BME280;45241;49.768;8.636;2023-04-24T08:52:44;99337.94;;;13.63;64.62
59435;BME280;45241;49.768;8.636;2023-04-24T08:55:10;99328.56;;;13.01;64.78
59435;BME280;45241;49.768;8.636;2023-04-24T08:57:36;99330.69;;;13.75;66.09
59435;BME280;45241;49.768;8.636;2023-04-24T09:00:04;99336.97;;;13.46;65.34
59435;BME280;45241;49.768;8.636;2023-04-24T09:02:31;99335.81;;;13.42;64.49
59435;BME280;45241;49.768;8.636;2023-04-24T09:04:57;99338.81;;;13.22;64.53
59435;BME280;45241;49.768;8.636;2023-04-24T09:07:24;99350.97;;;12.95;64.72
59435;BME280;45241;49.768;8.636;2023-04-24T09:09:51;99349.19;;;12.88;65.77
59435;BME280;45241;49.768;8.636;2023-04-24T09:12:17;99371.63;;;12.82;65.63
59435;BME280;45241;49.768;8.636;2023-04-24T09:14:42;99360.50;;;12.60;65.86
59435;BME280;45241;49.768;8.636;2023-04-24T09:17:10;99377.75;;;12.89;66.45
59435;BME280;45241;49.768;8.636;2023-04-24T09:19:36;99372.44;;;12.83;67.78
59435;BME280;45241;49.768;8.636;2023-04-24T09:22:05;99370.69;;;13.07;67.24
59435;BME280;45241;49.768;8.636;2023-04-24T09:24:31;99383.47;;;13.11;67.77
59435;BME280;45241;49.768;8.636;2023-04-24T09:26:58;99422.25;;;12.67;67.88
59435;BME280;45241;49.768;8.636;2023-04-24T09:29:24;99384.94;;;12.59;67.37
59435;BME280;45241;49.768;8.636;2023-04-24T09:31:50;99384.63;;;12.67;68.03
59435;BME280;45241;49.768;8.636;2023-04-24T09:34:21;99393.81;;;12.59;67.80
59435;BME280;45241;49.768;8.636;2023-04-24T09:36:46;99387.06;;;12.69;68.68
59435;BME280;45241;49.768;8.636;2023-04-24T09:39:14;99405.25;;;12.73;67.33
59435;BME280;45241;49.768;8.636;2023-04-24T09:41:51;99405.59;;;12.77;67.49
59435;BME280;45241;49.768;8.636;2023-04-24T09:46:45;99397.31;;;12.78;69.09
59435;BME280;45241;49.768;8.636;2023-04-24T09:49:14;99410.69;;;12.67;68.89
59435;BME280;45241;49.768;8.636;2023-04-24T09:51:43;99410.47;;;12.68;68.76
59435;BME280;45241;49.768;8.636;2023-04-24T09:54:20;99396.84;;;12.81;68.45
59435;BME280;45241;49.768;8.636;2023-04-24T09:56:47;99410.28;;;12.81;68.64
59435;BME280;45241;49.768;8.636;2023-04-24T09:59:17;99413.72;;;13.07;68.18
59435;BME280;45241;49.768;8.636;2023-04-24T10:01:43;99408.66;;;12.80;68.71
59435;BME280;45241;49.768;8.636;2023-04-24T10:04:29;99420.56;;;12.73;68.87
59435;BME280;45241;49.768;8.636;2023-04-24T10:06:56;99418.06;;;12.53;69.00
59435;BME280;45241;49.768;8.636;2023-04-24T10:09:24;99416.72;;;12.80;69.45
59435;BME280;45241;49.768;8.636;2023-04-24T10:11:51;99406.00;;;12.99;69.70
59435;BME280;45241;49.768;8.636;2023-04-24T10:14:19;99406.88;;;12.93;69.92
59435;BME280;45241;49.768;8.636;2023-04-24T10:16:46;99405.78;;;13.42;69.03
59435;BME280;45241;49.768;8.636;2023-04-24T10:19:13;99411.31;;;13.17;67.97
59435;BME280;45241;49.768;8.636;2023-04-24T10:21:40;99410.59;;;13.10;67.67
59435;BME280;45241;49.768;8.636;2023-04-24T10:24:08;99413.19;;;13.16;69.42
59435;BME280;45241;49.768;8.636;2023-04-24T10:26:34;99429.75;;;13.02;69.73
59435;BME280;45241;49.768;8.636;2023-04-24T10:29:00;99427.28;;;13.30;69.88
59435;BME280;45241;49.768;8.636;2023-04-24T10:31:28;99444.38;;;12.87;70.45
59435;BME280;45241;49.768;8.636;2023-04-24T10:33:56;99427.16;;;12.95;71.13
59435;BME280;45241;49.768;8.636;2023-04-24T10:36:23;99429.81;;;13.13;70.79
59435;BME280;45241;49.768;8.636;2023-04-24T10:38:52;99427.63;;;13.22;70.15
59435;BME280;45241;49.768;8.636;2023-04-24T10:41:19;99438.56;;;12.90;70.16
59435;BME280;45241;49.768;8.636;2023-04-24T10:43:48;99441.78;;;12.99;70.67
59435;BME280;45241;49.768;8.636;2023-04-24T10:46:20;99446.03;;;12.88;71.45
59435;BME280;45241;49.768;8.636;2023-04-24T10:48:55;99444.00;;;12.66;72.03
59435;BME280;45241;49.768;8.636;2023-04-24T10:51:22;99449.31;;;13.09;71.26
59435;BME280;45241;49.768;8.636;2023-04-24T10:53:49;99453.06;;;12.89;71.47
59435;BME280;45241;49.768;8.636;2023-04-24T10:56:16;99440.50;;;12.83;70.98
59435;BME280;45241;49.768;8.636;2023-04-24T10:58:43;99446.47;;;13.04;70.94
59435;BME280;45241;49.768;8.636;2023-04-24T11:01:24;99450.75;;;13.11;71.00
59435;BME280;45241;49.768;8.636;2023-04-24T11:03:54;99449.75;;;13.24;68.89
59435;BME280;45241;49.768;8.636;2023-04-24T11:06:32;99447.19;;;13.29;68.52
59435;BME280;45241;49.768;8.636;2023-04-24T11:09:10;99444.19;;;13.37;68.39
59435;BME280;45241;49.768;8.636;2023-04-24T11:11:44;99434.84;;;13.52;68.05
59435;BME280;45241;49.768;8.636;2023-04-24T11:14:10;99439.75;;;13.43;67.59
59435;BME280;45241;49.768;8.636;2023-04-24T11:27:13;99449.97;;;13.04;68.11
59435;BME280;45241;49.768;8.636;2023-04-24T11:29:46;99447.00;;;13.12;68.70
59435;BME280;45241;49.768;8.636;2023-04-24T11:32:22;99448.22;;;13.28;69.36
59435;BME280;45241;49.768;8.636;2023-04-24T11:34:51;99465.31;;;13.04;67.31
59435;BME280;45241;49.768;8.636;2023-04-24T11:37:16;99460.09;;;13.09;68.27
59435;BME280;45241;49.768;8.636;2023-04-24T11:39:42;99466.19;;;13.34;67.75
59435;BME280;45241;49.768;8.636;2023-04-24T11:42:09;99463.31;;;13.29;67.99
59435;BME280;45241;49.768;8.636;2023-04-24T11:44:34;99459.56;;;13.48;67.33
59435;BME280;45241;49.768;8.636;2023-04-24T11:47:05;99469.41;;;13.25;66.52
59435;BME280;45241;49.768;8.636;2023-04-24T11:49:32;99464.41;;;13.10;66.50
59435;BME280;45241;49.768;8.636;2023-04-24T11:51:58;99471.81;;;13.14;66.02
59435;BME280;45241;49.768;8.636;2023-04-24T11:54:25;99468.25;;;13.32;66.72
59435;BME280;45241;49.768;8.636;2023-04-24T11:56:50;99464.13;;;13.60;67.02
59435;BME280;45241;49.768;8.636;2023-04-24T11:59:15;99458.97;;;13.58;66.14
59435;BME280;45241;49.768;8.636;2023-04-24T12:01:47;99462.41;;;13.65;65.88
59435;BME280;45241;49.768;8.636;2023-04-24T12:04:15;99464.34;;;13.88;65.20
59435;BME280;45241;49.768;8.636;2023-04-24T12:06:59;99484.03;;;13.47;65.22
59435;BME280;45241;49.768;8.636;2023-04-24T12:09:24;99470.44;;;13.24;65.00
59435;BME280;45241;49.768;8.636;2023-04-24T12:11:56;99454.13;;;13.37;66.17
59435;BME280;45241;49.768;8.636;2023-04-24T12:14:24;99482.50;;;13.51;67.99
59435;BME280;45241;49.768;8.636;2023-04-24T12:16:50;99483.91;;;12.87;76.36
59435;BME280;45241;49.768;8.636;2023-04-24T12:19:21;99499.25;;;13.05;83.47
59435;BME280;45241;49.768;8.636;2023-04-24T12:22:02;99513.09;;;11.90;91.35
59435;BME280;45241;49.768;8.636;2023-04-24T12:24:28;99494.19;;;11.79;88.37
59435;BME280;45241;49.768;8.636;2023-04-24T12:26:54;99510.81;;;11.62;91.07
59435;BME280;45241;49.768;8.636;2023-04-24T12:29:20;99521.25;;;11.77;94.09
59435;BME280;45241;49.768;8.636;2023-04-24T12:31:46;99521.94;;;11.66;94.10
59435;BME280;45241;49.768;8.636;2023-04-24T12:34:18;99507.69;;;11.97;93.02
59435;BME280;45241;49.768;8.636;2023-04-24T12:36:45;99516.91;;;11.76;90.55
59435;BME280;45241;49.768;8.636;2023-04-24T12:39:18;99505.78;;;12.04;89.90
59435;BME280;45241;49.768;8.636;2023-04-24T12:41:54;99486.81;;;12.24;86.28
59435;BME280;45241;49.768;8.636;2023-04-24T12:46:56;99498.59;;;12.48;84.83
59435;BME280;45241;49.768;8.636;2023-04-24T12:49:22;99494.56;;;12.75;85.52
59435;BME280;45241;49.768;8.636;2023-04-24T12:51:47;99498.56;;;12.91;79.16
59435;BME280;45241;49.768;8.636;2023-04-24T12:54:13;99505.22;;;13.07;79.36
59435;BME280;45241;49.768;8.636;2023-04-24T12:56:38;99500.50;;;13.02;79.94
59435;BME280;45241;49.768;8.636;2023-04-24T12:59:04;99498.50;;;13.46;76.46
59435;BME280;45241;49.768;8.636;2023-04-24T13:01:30;99494.72;;;13.65;75.40
59435;BME280;45241;49.768;8.636;2023-04-24T13:03:55;99475.53;;;13.62;71.39
59435;BME280;45241;49.768;8.636;2023-04-24T13:06:21;99483.66;;;13.73;72.25
59435;BME280;45241;49.768;8.636;2023-04-24T13:08:46;99492.97;;;13.71;70.50